Time;durP1;ratioP1;P1;durP2;ratioP2;P2;SDS_P1;SDS_P2;PMS_P1;PMS_P2;Temp;Humidity;BMP_temperature;BMP_pressure;BME280_temperature;BME280_humidity;BME280_pressure;Samples;Min_cycle;Max_cycle;Signal;HPM_P1;HPM_P2
2022/04/19 00:01:44;;;;;;;159.65;57.08;;;1.10;99.90;;;;;;5097173;28;20036;-51
2022/04/19 00:04:11;;;;;;;127.60;48.65;;;1.20;99.90;;;;;;5097073;28;20378;-51
2022/04/19 00:06:37;;;;;;;105.20;42.38;;;1.10;99.90;;;;;;5097211;28;20115;-51
2022/04/19 00:09:04;;;;;;;120.55;46.08;;;1.10;99.90;;;;;;5097051;28;20028;-51
2022/04/19 00:11:30;;;;;;;120.63;46.50;;;1.10;99.90;;;;;;5097045;28;20024;-51
2022/04/19 00:13:56;;;;;;;96.82;41.90;;;1.10;99.90;;;;;;5096841;28;20081;-51
2022/04/19 00:16:22;;;;;;;142.25;52.65;;;1.00;99.90;;;;;;5096822;28;20032;-51
2022/04/19 00:18:48;;;;;;;124.05;47.05;;;1.00;99.90;;;;;;5096706;28;20062;-51
2022/04/19 00:21:14;;;;;;;134.30;50.55;;;1.00;99.90;;;;;;5096775;28;20035;-51
2022/04/19 00:23:40;;;;;;;145.70;57.80;;;1.10;99.90;;;;;;5096891;28;20026;-51
2022/04/19 00:26:06;;;;;;;154.68;59.15;;;1.10;99.90;;;;;;5096792;28;20107;-51
2022/04/19 00:28:32;;;;;;;140.77;50.83;;;1.00;99.90;;;;;;5096869;28;20032;-51
2022/04/19 00:30:58;;;;;;;146.93;55.15;;;1.10;99.90;;;;;;5096731;28;20024;-51
2022/04/19 00:33:26;;;;;;;119.00;47.35;;;1.00;99.90;;;;;;5078603;28;20035;-51
2022/04/19 00:35:52;;;;;;;125.47;48.22;;;1.10;99.90;;;;;;5096412;28;20059;-51
2022/04/19 00:38:18;;;;;;;115.65;46.50;;;1.10;99.90;;;;;;5096410;28;20077;-51
2022/04/19 00:40:44;;;;;;;93.75;40.80;;;1.10;99.90;;;;;;5096525;28;20020;-51
2022/04/19 00:43:12;;;;;;;96.47;41.53;;;1.10;99.90;;;;;;5095944;28;20055;-51
2022/04/19 00:45:38;;;;;;;78.90;37.28;;;1.10;99.90;;;;;;5096308;28;20024;-51
2022/04/19 00:48:05;;;;;;;79.60;36.40;;;1.00;99.90;;;;;;5096240;28;20492;-51
2022/04/19 00:50:34;;;;;;;74.95;36.15;;;0.90;99.90;;;;;;5078147;28;20076;-51
2022/04/19 00:53:02;;;;;;;65.10;32.08;;;0.80;99.90;;;;;;5078089;28;20031;-51
2022/04/19 00:55:28;;;;;;;70.18;33.10;;;0.80;99.90;;;;;;5096051;28;20020;-51
2022/04/19 00:57:54;;;;;;;64.82;31.60;;;0.80;99.90;;;;;;5096442;28;20086;-51
2022/04/19 01:00:22;;;;;;;70.30;33.00;;;0.80;99.90;;;;;;5077957;28;20443;-51
2022/04/19 01:03:10;;;;;;;64.22;31.38;;;0.70;99.90;;;;;;5078144;28;20035;-51
2022/04/19 01:05:37;;;;;;;61.08;30.77;;;0.60;99.90;;;;;;5077705;28;20082;-51
2022/04/19 01:08:07;;;;;;;57.63;28.98;;;0.70;99.90;;;;;;5077879;28;20382;-51
2022/04/19 01:10:36;;;;;;;58.05;28.77;;;0.70;99.90;;;;;;5077727;28;20051;-51
2022/04/19 01:13:17;;;;;;;64.35;29.75;;;0.70;99.90;;;;;;5077398;28;20035;-51
2022/04/19 01:15:49;;;;;;;59.63;29.23;;;0.70;99.90;;;;;;5094497;28;20375;-51
2022/04/19 01:18:22;;;;;;;68.53;31.42;;;0.80;99.90;;;;;;5077330;28;20051;-51
2022/04/19 01:20:50;;;;;;;65.88;31.05;;;0.80;99.90;;;;;;5077440;28;20431;-51
2022/04/19 01:23:19;;;;;;;65.80;30.88;;;0.70;99.90;;;;;;5077277;28;20070;-51
2022/04/19 01:25:46;;;;;;;74.75;32.83;;;0.70;99.90;;;;;;5095837;28;20027;-51
2022/04/19 01:28:13;;;;;;;66.28;31.52;;;0.60;99.90;;;;;;5095738;28;20020;-51
2022/04/19 01:30:43;;;;;;;64.78;30.85;;;0.60;99.90;;;;;;5077286;28;20028;-51
2022/04/19 01:33:10;;;;;;;;;;;0.60;99.90;;;;;;5094739;28;20499;-51
2022/04/19 01:35:38;;;;;;;70.10;33.13;;;0.60;99.90;;;;;;5093984;28;19912;-51
2022/04/19 01:38:05;;;;;;;74.38;34.00;;;0.60;99.90;;;;;;5077188;28;20066;-51
2022/04/19 01:40:39;;;;;;;82.40;38.97;;;0.60;99.90;;;;;;5077280;28;20024;-51
2022/04/19 01:43:09;;;;;;;73.00;34.13;;;0.60;99.90;;;;;;5077077;28;20078;-51
2022/04/19 01:45:47;;;;;;;76.50;35.15;;;0.60;99.90;;;;;;5077124;28;20074;-51
2022/04/19 01:48:18;;;;;;;71.25;33.33;;;0.60;99.90;;;;;;5065946;28;20020;-51
2022/04/19 01:50:45;;;;;;;61.33;29.80;;;0.60;99.90;;;;;;5073702;28;20047;-51
2022/04/19 01:53:12;;;;;;;60.30;28.65;;;0.60;99.90;;;;;;5077002;28;20119;-51
2022/04/19 01:55:39;;;;;;;62.60;29.80;;;0.40;99.90;;;;;;5076873;28;20166;-51
2022/04/19 01:58:17;;;;;;;61.80;28.52;;;0.40;99.90;;;;;;5076939;28;20039;-51
2022/04/19 02:00:43;;;;;;;62.97;29.40;;;0.50;99.90;;;;;;5076630;28;20032;-51
2022/04/19 02:03:13;;;;;;;58.78;29.13;;;0.50;99.90;;;;;;5076707;28;20070;-51
2022/04/19 02:05:40;;;;;;;62.38;30.52;;;0.40;99.90;;;;;;5076893;28;20032;-51
2022/04/19 02:08:07;;;;;;;60.20;28.38;;;0.50;99.90;;;;;;5076881;28;20043;-51
2022/04/19 02:10:35;;;;;;;73.75;31.23;;;0.60;99.90;;;;;;5093537;28;20114;-51
2022/04/19 02:13:01;;;;;;;75.72;30.45;;;0.50;99.90;;;;;;5076457;28;20617;-51
2022/04/19 02:15:36;;;;;;;61.65;29.67;;;0.50;99.90;;;;;;5094727;28;20568;-51
2022/04/19 02:18:22;;;;;;;80.20;38.63;;;0.40;99.90;;;;;;5063360;28;20048;-51
2022/04/19 02:20:48;;;;;;;68.53;33.03;;;0.40;99.90;;;;;;5069687;28;20068;-51
2022/04/19 02:23:14;;;;;;;71.47;32.40;;;0.40;99.90;;;;;;5074479;28;20499;-51
2022/04/19 02:25:41;;;;;;;71.68;34.78;;;0.40;99.90;;;;;;5074682;28;20036;-51
2022/04/19 02:28:10;;;;;;;72.25;34.50;;;0.30;99.90;;;;;;5056373;28;20422;-51
2022/04/19 02:30:41;;;;;;;72.95;33.53;;;0.30;99.90;;;;;;5056496;28;20029;-51
2022/04/19 02:33:12;;;;;;;76.90;34.78;;;0.30;99.90;;;;;;5056231;28;20044;-51
2022/04/19 02:35:40;;;;;;;71.50;32.10;;;0.20;99.90;;;;;;5056120;28;20440;-51
2022/04/19 02:38:07;;;;;;;69.03;33.13;;;0.10;99.90;;;;;;5056382;28;20071;-51
2022/04/19 02:40:43;;;;;;;60.28;31.42;;;0.00;99.90;;;;;;5056355;28;20056;-51
2022/04/19 02:43:09;;;;;;;65.60;31.98;;;-0.10;99.90;;;;;;5056283;28;20047;-51
2022/04/19 02:45:36;;;;;;;60.72;28.83;;;-0.10;99.90;;;;;;5056105;28;20035;-51
2022/04/19 02:48:05;;;;;;;58.20;28.75;;;-0.20;99.90;;;;;;5056151;28;20024;-51
2022/04/19 02:50:42;;;;;;;55.00;28.50;;;-0.20;99.90;;;;;;5056040;28;20571;-51
2022/04/19 02:53:08;;;;;;;56.85;28.30;;;-0.20;99.90;;;;;;5074110;28;20039;-51
2022/04/19 02:55:37;;;;;;;51.70;25.58;;;-0.20;99.90;;;;;;5072798;28;20036;-51
2022/04/19 02:58:03;;;;;;;53.60;27.75;;;-0.30;99.90;;;;;;5056184;28;20029;-51
2022/04/19 03:00:30;;;;;;;56.28;28.17;;;-0.20;99.90;;;;;;5055938;28;20056;-51
2022/04/19 03:02:56;;;;;;;53.78;26.95;;;-0.20;99.90;;;;;;5056018;28;20429;-51
2022/04/19 03:05:22;;;;;;;61.55;29.10;;;-0.10;99.90;;;;;;5074889;28;20087;-51
2022/04/19 03:07:48;;;;;;;58.67;29.35;;;-0.10;99.90;;;;;;5077844;28;20043;-51
2022/04/19 03:10:16;;;;;;;54.30;27.02;;;0.00;99.90;;;;;;5059937;28;20032;-51
2022/04/19 03:12:43;;;;;;;54.65;26.90;;;0.00;99.90;;;;;;5059767;28;20394;-51
2022/04/19 03:15:20;;;;;;;47.78;24.52;;;-0.10;99.90;;;;;;5059811;28;20032;-51
2022/04/19 03:17:47;;;;;;;51.17;25.88;;;-0.20;99.90;;;;;;5059716;28;20155;-51
2022/04/19 03:20:16;;;;;;;49.70;24.73;;;-0.20;99.90;;;;;;5078085;28;20032;-51
2022/04/19 03:28:18;;;;;;;67.90;25.95;;;-0.30;99.90;;;;;;5076126;28;20055;-51
2022/04/19 03:30:44;;;;;;;67.65;25.75;;;-0.30;99.90;;;;;;5059685;28;20363;-51
2022/04/19 03:33:12;;;;;;;56.97;24.35;;;-0.30;99.90;;;;;;5059584;28;20083;-51
2022/04/19 03:35:38;;;;;;;50.38;24.23;;;-0.30;99.90;;;;;;5059187;28;20044;-51
2022/04/19 03:38:08;;;;;;;48.70;24.48;;;-0.30;99.90;;;;;;5059453;28;20401;-52
2022/04/19 03:40:35;;;;;;;51.67;24.88;;;-0.40;99.90;;;;;;5076042;28;20390;-51
2022/04/19 03:43:07;;;;;;;43.50;23.20;;;-0.40;99.90;;;;;;5075957;28;20040;-51
2022/04/19 03:45:34;;;;;;;47.38;23.05;;;-0.40;99.90;;;;;;5076193;28;20124;-51
2022/04/19 03:48:02;;;;;;;41.60;23.60;;;-0.40;99.90;;;;;;5059123;28;20145;-52
2022/04/19 03:50:28;;;;;;;45.55;23.98;;;-0.40;99.90;;;;;;5059123;28;20024;-51
2022/04/19 03:52:54;;;;;;;49.83;24.92;;;-0.40;99.90;;;;;;5059315;28;20024;-51
2022/04/19 03:55:23;;;;;;;47.92;23.60;;;-0.30;99.90;;;;;;5058817;28;20375;-51
2022/04/19 03:57:50;;;;;;;52.47;25.73;;;-0.40;99.90;;;;;;5076947;28;20021;-51
2022/04/19 04:00:17;;;;;;;47.55;25.33;;;-0.40;99.90;;;;;;5058886;28;20394;-51
2022/04/19 04:02:44;;;;;;;49.60;25.73;;;-0.40;99.90;;;;;;5042359;28;20030;-51
2022/04/19 04:05:17;;;;;;;50.70;25.15;;;-0.30;99.90;;;;;;5076903;28;20028;-51
2022/04/19 04:07:44;;;;;;;53.78;25.70;;;-0.30;99.90;;;;;;5058725;28;20028;-51
2022/04/19 04:10:14;;;;;;;40.40;20.85;;;-0.20;99.90;;;;;;5058820;28;20020;-51
2022/04/19 04:12:40;;;;;;;52.60;26.05;;;-0.10;99.90;;;;;;5058660;28;20060;-51
2022/04/19 04:15:09;;;;;;;54.95;27.73;;;0.00;99.90;;;;;;5058592;28;20052;-51
2022/04/19 04:17:35;;;;;;;61.75;28.55;;;0.00;99.90;;;;;;5057189;28;20049;-51
2022/04/19 04:20:01;;;;;;;54.90;27.73;;;0.00;99.90;;;;;;5058552;28;20400;-51
2022/04/19 04:22:28;;;;;;;54.33;29.75;;;0.00;99.90;;;;;;5076453;28;20029;-51
2022/04/19 04:24:54;;;;;;;63.17;33.92;;;0.00;99.90;;;;;;5058401;28;20016;-51
2022/04/19 04:27:22;;;;;;;67.38;31.48;;;0.10;99.90;;;;;;5058588;28;20436;-51
2022/04/19 04:29:48;;;;;;;61.60;31.92;;;0.10;99.90;;;;;;5075273;28;20558;-51
2022/04/19 04:32:15;;;;;;;69.00;34.35;;;0.30;99.90;;;;;;5058258;28;20375;-51
2022/04/19 04:34:42;;;;;;;71.20;34.30;;;0.40;99.90;;;;;;5058254;28;20039;-51
2022/04/19 04:37:09;;;;;;;68.05;32.53;;;0.50;99.90;;;;;;5058112;28;20389;-51
2022/04/19 04:39:43;;;;;;;86.38;37.05;;;0.60;99.90;;;;;;5058213;28;20101;-51
2022/04/19 04:42:24;;;;;;;;;;;0.60;99.90;;;;;;5076634;28;20044;-51
2022/04/19 04:44:50;;;;;;;74.40;35.33;;;0.70;99.90;;;;;;5058074;28;20289;-51
2022/04/19 04:50:01;;;;;;;75.43;35.78;;;0.80;99.90;;;;;;5074801;28;20032;-51
2022/04/19 04:52:29;;;;;;;71.22;36.95;;;0.80;99.90;;;;;;5074647;28;20028;-51
2022/04/19 04:54:55;;;;;;;78.15;37.13;;;1.00;99.90;;;;;;5057773;28;20177;-51
2022/04/19 04:57:27;;;;;;;69.55;33.80;;;1.00;99.90;;;;;;5058037;28;20667;-51
2022/04/19 04:59:54;;;;;;;72.28;34.28;;;1.10;99.90;;;;;;5057741;28;20032;-51
2022/04/19 05:02:23;;;;;;;69.43;35.67;;;1.10;99.90;;;;;;5057623;28;20090;-51
2022/04/19 05:04:51;;;;;;;75.88;35.10;;;1.20;99.90;;;;;;5075872;28;20029;-51
2022/04/19 05:07:18;;;;;;;69.85;34.35;;;1.30;99.90;;;;;;5057642;28;20120;-51
2022/04/19 05:09:48;;;;;;;79.72;39.95;;;1.30;99.90;;;;;;5057673;28;20028;-51
2022/04/19 05:12:14;;;;;;;114.65;51.05;;;1.40;99.90;;;;;;5057439;28;20025;-51
2022/04/19 05:14:40;;;;;;;92.05;40.47;;;1.50;99.90;;;;;;5057148;28;20123;-51
2022/04/19 05:17:07;;;;;;;87.63;39.00;;;1.70;99.90;;;;;;5042300;28;20072;-52
2022/04/19 05:19:38;;;;;;;82.78;37.38;;;1.80;99.90;;;;;;5055265;28;20036;-51
2022/04/19 05:22:04;;;;;;;78.53;37.00;;;1.90;99.90;;;;;;5053483;28;20028;-51
2022/04/19 05:24:31;;;;;;;87.25;37.38;;;2.00;99.90;;;;;;5070890;28;20024;-51
2022/04/19 05:26:57;;;;;;;83.13;36.72;;;2.10;99.90;;;;;;5054844;28;20020;-51
2022/04/19 05:29:23;;;;;;;66.30;32.45;;;2.30;99.90;;;;;;5052754;28;20399;-51
2022/04/19 05:31:50;;;;;;;69.38;35.42;;;2.40;99.90;;;;;;5054674;28;20124;-51
2022/04/19 05:34:21;;;;;;;78.57;36.78;;;2.60;99.90;;;;;;5053111;28;20494;-51
2022/04/19 05:36:47;;;;;;;81.43;35.90;;;2.80;99.90;;;;;;5072127;28;20036;-51
2022/04/19 05:39:13;;;;;;;80.22;37.40;;;3.00;99.90;;;;;;5052132;28;20040;-51
2022/04/19 05:41:41;;;;;;;90.93;42.40;;;3.20;99.90;;;;;;5053844;28;20033;-51
2022/04/19 05:44:09;;;;;;;112.50;50.90;;;3.20;99.90;;;;;;5056821;28;20038;-51
2022/04/19 05:46:36;;;;;;;102.45;49.45;;;3.40;99.90;;;;;;5050958;28;20029;-51
2022/04/19 05:49:06;;;;;;;87.43;41.80;;;3.60;99.90;;;;;;5050853;28;20024;-51
2022/04/19 05:51:34;;;;;;;95.60;43.85;;;3.80;99.90;;;;;;5053714;28;20093;-51
2022/04/19 05:54:03;;;;;;;97.57;41.05;;;4.10;99.90;;;;;;5086099;28;20020;-50
2022/04/19 05:56:30;;;;;;;88.63;44.25;;;4.20;99.90;;;;;;5066768;28;20067;-51
2022/04/19 05:58:56;;;;;;;95.93;43.65;;;4.40;99.90;;;;;;5067446;28;20056;-51
2022/04/19 06:01:22;;;;;;;93.63;41.00;;;4.40;99.90;;;;;;5068581;28;20043;-51
2022/04/19 06:06:36;;;;;;;85.60;38.97;;;4.90;99.90;;;;;;5048419;28;20130;-51
2022/04/19 06:09:02;;;;;;;97.95;41.80;;;5.20;99.90;;;;;;5071127;28;20032;-51
2022/04/19 06:11:28;;;;;;;78.05;37.10;;;5.30;99.90;;;;;;5077371;28;20223;-51
2022/04/19 06:13:54;;;;;;;88.68;42.45;;;5.50;99.90;;;;;;5059261;28;20463;-51
2022/04/19 06:16:20;;;;;;;80.90;38.88;;;5.70;99.90;;;;;;5071606;28;20437;-51
2022/04/19 06:18:51;;;;;;;90.50;41.28;;;5.90;99.90;;;;;;5027605;28;20099;-53
2022/04/19 06:21:21;;;;;;;92.70;42.67;;;6.20;99.90;;;;;;5035250;28;20449;-51
2022/04/19 06:23:51;;;;;;;90.80;43.45;;;6.20;99.90;;;;;;5035993;28;20041;-51
2022/04/19 06:26:18;;;;;;;99.30;44.88;;;6.30;99.90;;;;;;5050375;28;20041;-51
2022/04/19 06:28:46;;;;;;;93.20;43.53;;;6.40;99.90;;;;;;5032363;28;20069;-53
2022/04/19 06:31:43;;;;;;;88.80;41.15;;;6.40;99.90;;;;;;5035455;28;20026;-51
2022/04/19 06:34:21;;;;;;;77.25;39.65;;;6.90;99.90;;;;;;5018936;28;20029;-51
2022/04/19 06:36:58;;;;;;;85.22;41.58;;;7.20;99.90;;;;;;5036102;28;20630;-51
2022/04/19 06:39:25;;;;;;;83.15;40.33;;;7.30;99.30;;;;;;5035975;28;20117;-51
2022/04/19 06:41:51;;;;;;;96.35;39.95;;;7.40;99.50;;;;;;5035760;28;20025;-51
2022/04/19 06:44:18;;;;;;;105.60;44.30;;;7.50;99.70;;;;;;5052585;28;20025;-51
2022/04/19 06:46:47;;;;;;;72.57;36.88;;;7.70;99.20;;;;;;5053045;28;20059;-51
2022/04/19 06:49:18;;;;;;;80.53;39.30;;;8.10;98.70;;;;;;5035265;28;20036;-51
2022/04/19 06:51:45;;;;;;;78.97;37.80;;;8.30;96.00;;;;;;5035972;28;20048;-51
2022/04/19 06:54:12;;;;;;;85.55;43.17;;;8.50;96.90;;;;;;5035795;28;20035;-51
2022/04/19 06:56:53;;;;;;;82.57;38.58;;;8.70;94.70;;;;;;5052079;28;20040;-51
2022/04/19 06:59:21;;;;;;;69.25;29.17;;;8.90;94.30;;;;;;5035408;28;20120;-52
2022/04/19 07:01:48;;;;;;;49.83;25.73;;;9.30;93.10;;;;;;5035993;28;20168;-51
2022/04/19 07:04:34;;;;;;;54.50;25.65;;;9.70;84.50;;;;;;5049829;28;20108;-52
2022/04/19 07:07:07;;;;;;;56.47;28.63;;;10.00;81.20;;;;;;5044274;28;20087;-52
2022/04/19 07:09:34;;;;;;;59.65;28.17;;;10.30;78.50;;;;;;5061219;28;20029;-52
2022/04/19 07:12:01;;;;;;;55.03;27.20;;;10.50;78.70;;;;;;5041294;28;20045;-52
2022/04/19 07:14:32;;;;;;;50.70;27.50;;;10.60;70.00;;;;;;5034774;28;20044;-52
2022/04/19 07:16:58;;;;;;;51.35;24.92;;;10.80;70.10;;;;;;5063373;28;20492;-52
2022/04/19 07:26:37;;;;;;;50.30;23.45;;;11.10;65.70;;;;;;5075936;28;20091;-52
2022/04/19 07:27:46;;;;;;;49.85;26.88;;;11.80;68.00;;;;;;5045024;28;20491;-52
2022/04/19 07:30:17;;;;;;;64.55;27.80;;;12.10;57.20;;;;;;5065602;28;20108;-52
2022/04/19 07:32:44;;;;;;;47.67;24.50;;;12.00;59.60;;;;;;5062848;28;20505;-52
2022/04/19 07:35:18;;;;;;;43.30;23.02;;;12.40;58.90;;;;;;5052116;28;20183;-52
2022/04/19 07:37:44;;;;;;;45.70;23.17;;;12.60;54.80;;;;;;5063691;28;20040;-52
2022/04/19 07:40:12;;;;;;;45.65;22.55;;;12.80;57.70;;;;;;5052740;28;20031;-52
2022/04/19 07:42:39;;;;;;;69.45;27.42;;;13.10;55.00;;;;;;5053520;28;20041;-52
2022/04/19 07:45:06;;;;;;;48.83;23.83;;;12.50;52.70;;;;;;5053900;28;20478;-52
2022/04/19 07:47:34;;;;;;;54.08;24.70;;;12.40;54.70;;;;;;5053099;28;20052;-52
2022/04/19 07:50:01;;;;;;;46.83;23.65;;;12.20;54.50;;;;;;5054097;28;20021;-52
2022/04/19 07:52:28;;;;;;;40.25;20.13;;;12.90;56.40;;;;;;5058113;28;20036;-52
2022/04/19 07:54:57;;;;;;;50.53;22.88;;;13.30;50.80;;;;;;5075512;28;20374;-52
2022/04/19 07:57:25;;;;;;;47.45;20.73;;;13.90;51.30;;;;;;5071052;28;20025;-52
2022/04/19 07:59:56;;;;;;;53.08;22.08;;;13.60;47.70;;;;;;5058172;28;20458;-52
2022/04/19 08:02:25;;;;;;;57.92;24.00;;;13.90;47.60;;;;;;5057744;28;20277;-52
2022/04/19 08:04:51;;;;;;;53.20;22.13;;;14.10;48.80;;;;;;5055720;28;20289;-52
2022/04/19 08:07:17;;;;;;;52.35;22.15;;;14.20;50.20;;;;;;5057471;28;20044;-52
2022/04/19 08:09:43;;;;;;;42.63;19.95;;;14.20;47.90;;;;;;5064305;28;20028;-52
2022/04/19 08:12:11;;;;;;;25.20;13.38;;;14.60;47.20;;;;;;5077849;28;20033;-52
2022/04/19 08:14:37;;;;;;;31.80;14.57;;;14.50;44.40;;;;;;5074906;28;20078;-53
2022/04/19 08:17:03;;;;;;;15.48;8.38;;;14.70;44.70;;;;;;5077828;28;20028;-53
2022/04/19 08:19:30;;;;;;;27.48;12.52;;;14.60;43.60;;;;;;5063924;28;20040;-53
2022/04/19 08:21:57;;;;;;;21.02;10.63;;;14.70;43.60;;;;;;5060976;28;20056;-52
2022/04/19 08:24:26;;;;;;;22.77;9.38;;;15.10;43.80;;;;;;5043856;28;20467;-52
2022/04/19 08:26:52;;;;;;;26.00;11.10;;;15.60;41.90;;;;;;5034177;28;20024;-52
2022/04/19 08:29:18;;;;;;;22.52;9.60;;;15.60;40.20;;;;;;5040751;28;20116;-53
2022/04/19 08:31:44;;;;;;;14.18;9.23;;;15.70;40.70;;;;;;5042575;28;20371;-53
2022/04/19 08:34:10;;;;;;;14.60;8.85;;;15.20;41.00;;;;;;5057188;28;20028;-53
2022/04/19 08:36:36;;;;;;;20.75;10.38;;;15.10;40.90;;;;;;5023041;28;20028;-52
2022/04/19 08:39:03;;;;;;;15.73;7.25;;;15.60;41.50;;;;;;5062199;28;20454;-53
2022/04/19 08:41:30;;;;;;;14.00;7.72;;;16.20;38.80;;;;;;5038448;28;20021;-53
2022/04/19 08:43:57;;;;;;;13.77;7.85;;;16.50;37.00;;;;;;5025350;28;20268;-53
2022/04/19 08:46:25;;;;;;;10.68;5.50;;;16.90;37.20;;;;;;5064262;28;20036;-53
2022/04/19 08:48:51;;;;;;;13.82;4.53;;;16.60;34.00;;;;;;5062237;28;20208;-59
2022/04/19 08:51:20;;;;;;;9.13;5.47;;;16.30;32.90;;;;;;5070517;28;20024;-59
2022/04/19 08:59:15;;;;;;;8.13;5.25;;;16.30;34.30;;;;;;5054516;28;20037;-59
2022/04/19 09:01:41;;;;;;;19.23;7.25;;;16.10;33.20;;;;;;5062490;28;20440;-59
2022/04/19 09:04:07;;;;;;;16.08;7.32;;;16.90;35.10;;;;;;5061348;28;20048;-59
2022/04/19 09:06:53;;;;;;;16.60;6.20;;;17.40;35.00;;;;;;5061170;28;20452;-59
2022/04/19 09:09:38;;;;;;;8.95;4.35;;;17.20;30.40;;;;;;5065088;28;20079;-59
2022/04/19 09:12:10;;;;;;;12.15;4.75;;;15.80;29.30;;;;;;5068167;28;20040;-59
2022/04/19 09:14:37;;;;;;;8.73;6.30;;;15.30;30.80;;;;;;5051559;28;20033;-59
2022/04/19 09:17:08;;;;;;;7.13;4.95;;;15.10;33.80;;;;;;5038221;28;20037;-59
2022/04/19 09:19:37;;;;;;;8.15;4.57;;;15.50;33.10;;;;;;5074802;28;20058;-59
2022/04/19 09:22:04;;;;;;;9.07;5.25;;;16.40;32.80;;;;;;5062527;28;20467;-60
2022/04/19 09:24:31;;;;;;;8.73;5.28;;;16.40;32.60;;;;;;5054673;28;20459;-60
2022/04/19 09:26:57;;;;;;;32.55;7.75;;;16.10;32.20;;;;;;5058266;28;20070;-60
2022/04/19 09:29:27;;;;;;;6.72;4.15;;;16.30;34.10;;;;;;5069961;28;20071;-60
2022/04/19 09:31:58;;;;;;;12.97;5.13;;;17.30;32.70;;;;;;5054839;28;20143;-60
2022/04/19 09:34:29;;;;;;;9.55;5.35;;;17.90;30.90;;;;;;5074734;28;20277;-59
2022/04/19 09:37:08;;;;;;;17.30;7.40;;;18.00;30.50;;;;;;5069224;28;20077;-60
2022/04/19 09:39:36;;;;;;;11.70;6.00;;;17.70;30.60;;;;;;5075269;28;20024;-60
2022/04/19 09:42:05;;;;;;;21.60;7.00;;;17.80;30.20;;;;;;5079969;28;20032;-60
2022/04/19 09:44:37;;;;;;;14.55;6.20;;;18.50;31.40;;;;;;5061346;28;20031;-60
2022/04/19 09:47:04;;;;;;;11.75;5.80;;;18.00;29.70;;;;;;5081968;28;20025;-60
2022/04/19 09:49:50;;;;;;;10.68;6.75;;;17.80;29.10;;;;;;5074291;28;20020;-60
2022/04/19 09:52:22;;;;;;;12.55;6.47;;;18.40;28.20;;;;;;5071974;28;20029;-60
2022/04/19 09:55:00;;;;;;;19.90;7.53;;;18.50;29.40;;;;;;5066367;28;20063;-60
2022/04/19 09:57:28;;;;;;;9.20;7.05;;;18.10;29.90;;;;;;5067514;28;20043;-60
2022/04/19 09:59:54;;;;;;;14.63;6.43;;;17.80;30.40;;;;;;5073982;28;20560;-63
2022/04/19 10:10:38;;;;;;;19.83;8.60;;;19.80;29.90;;;;;;5076391;28;20027;-63
2022/04/19 10:13:08;;;;;;;8.45;5.93;;;19.20;28.20;;;;;;5083466;28;20135;-63
2022/04/19 10:15:37;;;;;;;11.15;5.55;;;18.90;27.60;;;;;;5082450;28;20040;-63
2022/04/19 10:18:04;;;;;;;8.73;5.53;;;19.70;31.10;;;;;;5081133;28;20530;-63
2022/04/19 10:20:32;;;;;;;13.77;6.20;;;19.90;27.90;;;;;;5046527;28;20029;-63
2022/04/19 10:23:10;;;;;;;12.30;6.10;;;20.00;27.60;;;;;;5041633;28;20067;-62
2022/04/19 10:25:40;;;;;;;11.32;5.95;;;19.40;27.70;;;;;;5040007;28;20079;-63
2022/04/19 10:28:08;;;;;;;8.35;4.60;;;18.50;28.20;;;;;;5042993;28;20475;-63
2022/04/19 10:30:36;;;;;;;10.98;5.32;;;18.30;29.30;;;;;;5044922;28;20160;-62
2022/04/19 10:33:40;;;;;;;13.85;4.97;;;18.30;29.20;;;;;;5041768;28;20029;-62
2022/04/19 10:36:18;;;;;;;9.18;4.80;;;17.70;28.10;;;;;;5053966;28;20044;-62
2022/04/19 10:38:46;;;;;;;11.20;5.68;;;18.10;28.70;;;;;;5071837;28;20051;-62
2022/04/19 10:41:52;;;;;;;14.13;5.47;;;18.60;29.20;;;;;;5067124;28;20116;-62
2022/04/19 10:44:36;;;;;;;8.95;4.25;;;18.20;28.00;;;;;;5069352;28;20454;-62
2022/04/19 10:47:05;;;;;;;7.05;4.40;;;18.30;28.90;;;;;;5039932;28;20018;-62
2022/04/19 10:49:36;;;;;;;7.60;5.10;;;18.40;28.50;;;;;;5040007;28;20047;-62
2022/04/19 10:52:21;;;;;;;;;;;18.40;28.10;;;;;;5037557;28;20060;-62
2022/04/19 10:55:07;;;;;;;11.35;5.28;;;18.10;27.40;;;;;;5055184;28;19955;-62
2022/04/19 11:00:34;;;;;;;7.53;4.20;;;18.50;26.90;;;;;;5033013;28;20044;-62
2022/04/19 11:03:18;;;;;;;11.38;3.92;;;17.60;28.30;;;;;;5033828;28;20025;-62
2022/04/19 11:05:44;;;;;;;8.10;3.78;;;18.20;29.50;;;;;;5033772;28;20360;-62
2022/04/19 11:08:25;;;;;;;5.18;3.03;;;18.30;26.90;;;;;;5033633;28;20020;-62
2022/04/19 11:11:21;;;;;;;13.65;4.80;;;17.80;26.20;;;;;;5070999;28;20082;-61
2022/04/19 11:14:18;;;;;;;8.75;4.60;;;17.30;26.00;;;;;;5073248;28;20035;-61
2022/04/19 11:16:51;;;;;;;19.77;11.48;;;16.70;28.40;;;;;;5057610;28;20060;-61
2022/04/19 11:19:23;;;;;;;17.50;8.50;;;16.80;29.20;;;;;;5052570;28;20470;-61
2022/04/19 11:21:52;;;;;;;19.02;8.43;;;16.90;29.80;;;;;;5043259;28;20029;-61
2022/04/19 11:24:56;;;;;;;6.70;3.88;;;17.10;30.40;;;;;;5044598;28;20061;-62
2022/04/19 11:27:22;;;;;;;8.82;3.95;;;16.90;28.00;;;;;;5036489;28;20029;-61
2022/04/19 11:29:51;;;;;;;8.15;4.70;;;17.00;27.40;;;;;;5038908;28;20045;-62
2022/04/19 11:32:25;;;;;;;6.63;3.85;;;16.70;28.60;;;;;;5051982;28;20099;-61
2022/04/19 11:35:05;;;;;;;9.40;3.42;;;16.60;28.70;;;;;;5044582;28;20456;-62
2022/04/19 11:37:32;;;;;;;9.57;3.95;;;16.40;28.00;;;;;;5054592;28;20029;-61
2022/04/19 11:48:37;;;;;;;22.02;5.22;;;15.70;27.40;;;;;;5072445;28;20024;-61
2022/04/19 11:51:11;;;;;;;9.00;3.92;;;15.60;28.90;;;;;;5053733;28;20513;-61
2022/04/19 11:53:37;;;;;;;8.02;3.65;;;15.90;29.80;;;;;;5046798;28;20028;-61
2022/04/19 11:56:04;;;;;;;6.28;3.78;;;16.20;29.60;;;;;;5050884;28;20122;-62
2022/04/19 11:58:31;;;;;;;5.80;3.53;;;16.60;30.30;;;;;;5063965;28;20471;-62
2022/04/19 12:01:05;;;;;;;15.93;4.05;;;17.50;30.50;;;;;;5056704;28;20115;-62
2022/04/19 12:03:36;;;;;;;7.22;3.50;;;17.40;28.80;;;;;;5065467;28;20499;-62
2022/04/19 12:06:05;;;;;;;7.10;3.78;;;17.50;28.40;;;;;;5055807;28;20028;-61
2022/04/19 12:08:33;;;;;;;4.95;2.85;;;17.10;28.00;;;;;;5056212;28;20040;-61
2022/04/19 12:11:10;;;;;;;3.33;2.25;;;16.90;27.60;;;;;;5055465;28;20030;-62
2022/04/19 12:13:37;;;;;;;10.27;3.13;;;16.80;28.60;;;;;;5055110;28;20068;-62
2022/04/19 12:16:07;;;;;;;7.72;3.42;;;17.10;28.40;;;;;;5054969;28;20087;-62
2022/04/19 12:18:38;;;;;;;10.65;3.92;;;17.10;28.20;;;;;;5053497;28;20187;-62
2022/04/19 12:21:06;;;;;;;6.78;3.40;;;17.00;29.10;;;;;;5051317;28;20441;-61
2022/04/19 12:23:34;;;;;;;5.50;3.40;;;16.50;28.50;;;;;;5056296;28;20029;-62
2022/04/19 12:26:01;;;;;;;8.75;3.28;;;16.10;29.00;;;;;;5045128;28;20022;-61
2022/04/19 12:28:53;;;;;;;10.63;3.25;;;16.00;29.80;;;;;;5054436;28;20063;-61
2022/04/19 12:31:35;;;;;;;6.43;3.28;;;15.70;29.20;;;;;;5063386;28;20032;-61
2022/04/19 12:34:02;;;;;;;15.02;5.05;;;15.50;29.40;;;;;;5066850;28;20030;-61
2022/04/19 12:36:39;;;;;;;11.38;4.10;;;15.60;29.50;;;;;;5051734;28;20036;-61
2022/04/19 12:39:05;;;;;;;11.43;4.38;;;15.90;30.30;;;;;;5054388;28;20017;-62
2022/04/19 12:41:43;;;;;;;5.70;3.08;;;15.70;29.50;;;;;;5057946;28;20435;-61
2022/04/19 12:44:12;;;;;;;10.45;3.17;;;15.40;29.30;;;;;;5061889;28;20082;-61
2022/04/19 12:46:53;;;;;;;11.57;3.97;;;15.60;29.90;;;;;;5062087;28;20493;-61
2022/04/19 12:49:29;;;;;;;12.13;3.83;;;15.70;31.20;;;;;;5059621;28;20039;-61
2022/04/19 12:52:02;;;;;;;11.65;4.90;;;15.70;30.90;;;;;;5058912;28;20513;-61
2022/04/19 12:54:29;;;;;;;6.00;3.00;;;15.70;30.90;;;;;;5048291;28;20146;-61
2022/04/19 12:59:53;;;;;;;5.03;2.95;;;15.20;30.90;;;;;;5061318;28;20056;-61
2022/04/19 13:02:20;;;;;;;;;;;15.40;32.70;;;;;;5044244;28;20021;-61
2022/04/19 13:04:47;;;;;;;15.98;4.35;;;15.70;32.80;;;;;;5047322;28;20374;-61
2022/04/19 13:12:43;;;;;;;9.70;3.50;;;15.60;33.70;;;;;;5043029;28;20025;-61
2022/04/19 13:15:10;;;;;;;14.73;4.93;;;15.60;33.20;;;;;;5041421;28;20028;-61
2022/04/19 13:17:41;;;;;;;15.98;4.95;;;15.40;33.50;;;;;;5055189;28;20048;-62
2022/04/19 13:20:09;;;;;;;16.77;5.70;;;15.60;34.10;;;;;;5062604;28;20061;-61
2022/04/19 13:22:38;;;;;;;10.18;4.00;;;15.60;33.80;;;;;;5055314;28;20147;-62
2022/04/19 13:25:07;;;;;;;12.02;4.47;;;15.30;33.00;;;;;;5044430;28;20467;-61
2022/04/19 13:27:35;;;;;;;27.98;10.73;;;15.50;33.80;;;;;;5043808;28;20592;-61
2022/04/19 13:30:06;;;;;;;13.30;6.15;;;15.70;33.50;;;;;;5036317;28;20026;-61
2022/04/19 13:32:35;;;;;;;16.50;5.60;;;15.80;33.30;;;;;;5035981;28;20578;-61
2022/04/19 13:35:01;;;;;;;12.98;5.43;;;15.60;33.20;;;;;;5033857;28;20037;-62
2022/04/19 13:40:12;;;;;;;15.77;6.25;;;15.10;34.10;;;;;;5035038;28;20037;-61
2022/04/19 13:42:38;;;;;;;15.82;5.47;;;15.30;35.50;;;;;;5035326;28;20040;-61